createdAt,value
2019-06-08T00:01:27.829Z,2.40
2019-06-08T00:03:57.696Z,2.23
2019-06-08T00:06:27.493Z,2.40
2019-06-08T00:08:57.444Z,2.50
2019-06-08T00:11:27.267Z,2.20
2019-06-08T00:13:57.129Z,1.93
2019-06-08T00:16:26.862Z,2.20
2019-06-08T00:18:56.814Z,2.10
2019-06-08T00:21:26.777Z,2.20
2019-06-08T00:23:56.667Z,2.17
2019-06-08T00:26:26.561Z,2.07
2019-06-08T00:28:58.867Z,1.83
2019-06-08T00:31:28.830Z,1.70
2019-06-08T00:33:58.708Z,1.70
2019-06-08T00:36:28.601Z,2.00
2019-06-08T00:38:58.545Z,1.80
2019-06-08T00:41:28.426Z,2.03
2019-06-08T00:44:00.701Z,1.97
2019-06-08T00:46:30.688Z,2.30
2019-06-08T00:49:00.631Z,2.03
2019-06-08T00:51:35.360Z,2.00
2019-06-08T00:54:11.159Z,2.27
2019-06-08T00:56:41.367Z,2.10
2019-06-08T00:59:11.267Z,2.07
2019-06-08T01:01:41.660Z,2.27
2019-06-08T01:04:11.961Z,1.80
2019-06-08T01:06:41.931Z,2.27
2019-06-08T01:09:12.035Z,1.93
2019-06-08T01:11:42.057Z,1.93
2019-06-08T01:14:12.103Z,2.07
2019-06-08T01:16:41.982Z,2.10
2019-06-08T01:19:12.012Z,2.40
2019-06-08T01:21:41.963Z,1.70
2019-06-08T01:24:11.961Z,2.07
2019-06-08T01:26:41.735Z,2.17
2019-06-08T01:29:11.623Z,1.80
2019-06-08T01:31:41.545Z,1.60
2019-06-08T01:34:11.414Z,2.20
2019-06-08T01:36:42.516Z,2.20
2019-06-08T01:39:13.976Z,1.83
2019-06-08T01:41:43.958Z,1.70
2019-06-08T01:44:13.860Z,1.87
2019-06-08T01:46:43.746Z,1.60
2019-06-08T01:49:13.494Z,1.97
2019-06-08T01:51:43.523Z,1.83
2019-06-08T01:54:13.440Z,1.63
2019-06-08T01:56:43.291Z,1.73
2019-06-08T01:59:13.301Z,1.83
2019-06-08T02:01:43.232Z,2.17
2019-06-08T02:04:13.206Z,1.70
2019-06-08T02:06:43.189Z,1.47
2019-06-08T02:09:13.239Z,1.80
2019-06-08T02:11:43.168Z,1.70
2019-06-08T02:14:13.147Z,1.60
2019-06-08T02:16:43.112Z,1.80
2019-06-08T02:19:13.088Z,1.73
2019-06-08T02:21:43.105Z,1.70
2019-06-08T02:24:14.895Z,1.80
2019-06-08T02:26:44.855Z,1.50
2019-06-08T02:29:14.857Z,1.37
2019-06-08T02:31:48.067Z,1.57
2019-06-08T02:34:16.403Z,1.37
2019-06-08T02:36:46.318Z,1.37
2019-06-08T02:39:18.967Z,1.70
2019-06-08T02:41:48.951Z,1.50
2019-06-08T02:44:18.844Z,1.53
2019-06-08T02:46:48.776Z,1.50
2019-06-08T02:49:18.802Z,1.40
2019-06-08T02:51:49.052Z,1.40
2019-06-08T02:54:18.906Z,1.60
2019-06-08T02:56:51.645Z,1.67
2019-06-08T02:59:23.302Z,1.80
2019-06-08T03:01:55.843Z,1.50
2019-06-08T03:04:27.726Z,1.50
2019-06-08T03:06:59.593Z,1.80
2019-06-08T03:09:30.688Z,1.60
2019-06-08T03:12:05.032Z,2.03
2019-06-08T03:14:35.549Z,1.63
2019-06-08T03:17:05.936Z,1.70
2019-06-08T03:19:36.107Z,1.47
2019-06-08T03:22:10.767Z,1.33
2019-06-08T03:24:38.891Z,1.70
2019-06-08T03:27:08.780Z,1.53
2019-06-08T03:29:39.481Z,1.50
2019-06-08T03:32:10.637Z,1.60
2019-06-08T03:34:51.095Z,1.50
2019-06-08T03:37:17.849Z,1.70
2019-06-08T03:39:49.815Z,1.60
2019-06-08T03:42:21.055Z,1.70
2019-06-08T03:44:52.581Z,1.50
2019-06-08T03:47:29.433Z,1.83
2019-06-08T03:50:02.969Z,1.70
2019-06-08T03:52:32.749Z,1.80
2019-06-08T03:55:02.702Z,1.33
2019-06-08T03:57:35.683Z,1.80
2019-06-08T04:00:12.872Z,1.50
2019-06-08T04:02:42.259Z,1.40
2019-06-08T04:05:13.684Z,1.63
2019-06-08T04:07:48.101Z,1.63
2019-06-08T04:10:24.031Z,1.50
2019-06-08T04:13:06.073Z,1.30
2019-06-08T04:15:37.903Z,1.43
2019-06-08T04:18:18.273Z,1.20
2019-06-08T04:20:51.586Z,1.33
2019-06-08T04:23:26.309Z,1.53
2019-06-08T04:25:56.412Z,1.10
2019-06-08T04:28:31.793Z,1.60
2019-06-08T04:31:03.447Z,1.20
2019-06-08T04:33:33.516Z,1.30
2019-06-08T04:36:03.395Z,1.00
2019-06-08T04:38:41.350Z,1.07
2019-06-08T04:41:11.625Z,1.33
2019-06-08T04:43:44.634Z,1.20
2019-06-08T04:46:13.565Z,1.10
2019-06-08T04:48:45.238Z,1.30
2019-06-08T04:51:15.113Z,1.27
2019-06-08T04:53:47.047Z,1.20
2019-06-08T04:56:18.334Z,1.20
2019-06-08T04:58:50.271Z,1.43
2019-06-08T05:01:20.057Z,1.10
2019-06-08T05:03:50.206Z,1.07
2019-06-08T05:06:20.107Z,1.47
2019-06-08T05:08:50.145Z,1.23
2019-06-08T05:11:20.057Z,1.40
2019-06-08T05:13:50.137Z,1.27
2019-06-08T05:16:20.157Z,1.40
2019-06-08T05:18:51.655Z,0.97
2019-06-08T05:21:21.685Z,1.10
2019-06-08T05:23:58.715Z,1.10
2019-06-08T05:26:23.249Z,1.00
2019-06-08T05:28:53.226Z,1.40
2019-06-08T05:31:23.182Z,1.00
2019-06-08T05:33:52.962Z,1.00
2019-06-08T05:36:22.844Z,1.20
2019-06-08T05:38:52.701Z,1.20
2019-06-08T05:41:24.226Z,1.20
2019-06-08T05:43:54.186Z,1.23
2019-06-08T05:46:23.894Z,1.10
2019-06-08T05:48:53.777Z,1.33
2019-06-08T05:51:23.488Z,1.20
2019-06-08T05:53:53.269Z,1.37
2019-06-08T05:56:28.744Z,1.20
2019-06-08T05:58:57.746Z,1.40
2019-06-08T06:01:29.268Z,1.47
2019-06-08T06:03:59.281Z,1.40
2019-06-08T06:06:29.011Z,1.60
2019-06-08T06:08:58.728Z,1.73
2019-06-08T06:11:28.503Z,1.40
2019-06-08T06:14:01.661Z,2.03
2019-06-08T06:16:31.745Z,1.30
2019-06-08T06:19:01.618Z,1.50
2019-06-08T06:21:31.553Z,1.30
2019-06-08T06:24:01.407Z,1.50
2019-06-08T06:26:31.527Z,1.40
2019-06-08T06:29:03.862Z,1.50
2019-06-08T06:31:35.503Z,1.57
2019-06-08T06:34:16.886Z,1.47
2019-06-08T06:36:52.459Z,1.43
2019-06-08T06:39:22.358Z,1.63
2019-06-08T06:41:52.483Z,1.50
2019-06-08T06:44:30.673Z,1.40
2019-06-08T06:47:00.591Z,1.67
2019-06-08T06:49:30.423Z,1.23
2019-06-08T06:52:00.274Z,1.30
2019-06-08T06:54:29.947Z,1.90
2019-06-08T06:56:59.863Z,1.50
2019-06-08T06:59:29.771Z,1.47
2019-06-08T07:01:59.530Z,1.40
2019-06-08T07:04:29.476Z,1.43
2019-06-08T07:06:59.639Z,1.73
2019-06-08T07:09:29.995Z,1.47
2019-06-08T07:12:00.503Z,1.33
2019-06-08T07:14:34.106Z,1.33
2019-06-08T07:17:04.097Z,1.60
2019-06-08T07:19:33.826Z,1.90
2019-06-08T07:22:03.729Z,1.50
2019-06-08T07:24:33.600Z,1.73
2019-06-08T07:27:07.452Z,1.40
2019-06-08T07:29:38.334Z,1.30
2019-06-08T07:32:11.415Z,1.50
2019-06-08T07:34:48.627Z,1.30
2019-06-08T07:38:10.241Z,1.63
2019-06-08T07:41:14.747Z,1.50
2019-06-08T07:46:40.862Z,1.30
2019-06-08T07:52:14.979Z,1.60
2019-06-08T07:57:54.084Z,1.60
2019-06-08T08:03:21.655Z,1.73
2019-06-08T08:05:55.056Z,1.47
2019-06-08T08:08:25.279Z,1.63
2019-06-08T08:11:09.220Z,1.87
2019-06-08T08:13:57.102Z,1.60
2019-06-08T08:16:45.085Z,1.37
2019-06-08T08:19:14.930Z,1.90
2019-06-08T08:21:51.814Z,1.67
2019-06-08T08:24:21.903Z,1.50
2019-06-08T08:26:57.380Z,1.40
2019-06-08T08:29:35.008Z,1.70
2019-06-08T08:32:10.861Z,1.43
2019-06-08T08:34:40.645Z,1.33
2019-06-08T08:37:10.580Z,1.70
2019-06-08T08:39:40.726Z,1.40
2019-06-08T08:42:18.046Z,1.20
2019-06-08T08:44:48.637Z,1.50
2019-06-08T08:47:21.897Z,1.43
2019-06-08T08:49:59.193Z,1.53
2019-06-08T08:52:36.409Z,1.50
2019-06-08T08:55:01.854Z,1.40
2019-06-08T08:57:31.563Z,1.47
2019-06-08T09:00:05.151Z,1.53
2019-06-08T09:02:44.427Z,1.60
2019-06-08T09:05:12.141Z,1.33
2019-06-08T09:07:41.994Z,1.30
2019-06-08T09:10:12.068Z,1.60
2019-06-08T09:12:48.416Z,1.40
2019-06-08T09:15:19.214Z,1.77
2019-06-08T09:17:49.242Z,1.30
2019-06-08T09:20:19.561Z,1.57
2019-06-08T09:22:59.163Z,1.80
2019-06-08T09:25:22.761Z,1.80
2019-06-08T09:27:53.357Z,1.40
2019-06-08T09:30:24.266Z,1.13
2019-06-08T09:32:59.140Z,1.40
2019-06-08T09:35:27.988Z,1.43
2019-06-08T09:38:04.855Z,1.30
2019-06-08T09:40:34.495Z,1.40
2019-06-08T09:43:10.365Z,1.37
2019-06-08T09:45:38.938Z,1.20
2019-06-08T09:48:09.300Z,1.30
2019-06-08T09:50:39.926Z,2.00
2019-06-08T09:53:23.724Z,1.27
2019-06-08T09:55:41.536Z,1.50
2019-06-08T09:58:11.914Z,1.50
2019-06-08T10:00:41.805Z,1.43
2019-06-08T10:03:13.070Z,1.30
2019-06-08T10:05:44.477Z,1.70
2019-06-08T10:08:14.319Z,1.80
2019-06-08T10:10:44.222Z,1.27
2019-06-08T10:13:18.701Z,1.40
2019-06-08T10:15:51.156Z,1.80
2019-06-08T10:18:18.810Z,1.40
2019-06-08T10:20:48.638Z,1.53
2019-06-08T10:23:30.649Z,1.30
2019-06-08T10:25:49.881Z,1.50
2019-06-08T10:28:21.905Z,1.60
2019-06-08T10:30:51.901Z,1.50
2019-06-08T10:33:21.799Z,1.60
2019-06-08T10:35:51.571Z,1.73
2019-06-08T10:38:21.260Z,1.40
2019-06-08T10:41:12.922Z,1.30
2019-06-08T10:43:38.790Z,1.60
2019-06-08T10:46:16.562Z,1.57
2019-06-08T10:48:42.259Z,1.30
2019-06-08T10:51:13.991Z,1.53
2019-06-08T10:53:49.031Z,1.57
2019-06-08T10:56:15.596Z,1.47
2019-06-08T10:58:49.468Z,1.50
2019-06-08T11:01:18.837Z,1.33
2019-06-08T11:03:49.186Z,1.50
2019-06-08T11:06:22.095Z,1.90
2019-06-08T11:08:51.973Z,1.50
2019-06-08T11:11:22.004Z,1.70
2019-06-08T11:13:52.131Z,1.40
2019-06-08T11:16:21.975Z,1.67
2019-06-08T11:18:58.533Z,1.70
2019-06-08T11:21:28.626Z,1.57
2019-06-08T11:24:07.574Z,1.43
2019-06-08T11:26:29.969Z,1.60
2019-06-08T11:29:02.541Z,1.40
2019-06-08T11:31:32.358Z,1.40
2019-06-08T11:34:02.690Z,1.20
2019-06-08T11:36:33.781Z,1.20
2019-06-08T11:39:04.382Z,1.47
2019-06-08T11:41:34.206Z,1.40
2019-06-08T11:44:08.988Z,1.80
2019-06-08T11:46:38.785Z,1.30
2019-06-08T11:49:13.459Z,1.33
2019-06-08T11:51:41.117Z,1.07
2019-06-08T11:54:33.237Z,1.60
2019-06-08T11:56:53.975Z,1.53
2019-06-08T11:59:25.475Z,1.60
2019-06-08T12:01:55.366Z,1.77
2019-06-08T12:04:25.247Z,1.60
2019-06-08T12:07:09.549Z,1.53
2019-06-08T12:09:49.915Z,1.80
2019-06-08T12:12:28.167Z,1.73
2019-06-08T12:15:17.507Z,1.43
2019-06-08T12:17:52.495Z,1.60
2019-06-08T12:20:27.977Z,1.63
2019-06-08T12:22:58.149Z,1.77
2019-06-08T12:25:31.237Z,1.50
2019-06-08T12:28:08.446Z,1.20
2019-06-08T12:30:42.702Z,1.60
2019-06-08T12:33:15.388Z,1.40
2019-06-08T12:35:51.021Z,1.40
2019-06-08T12:38:34.664Z,1.33
2019-06-08T12:41:12.279Z,1.47
2019-06-08T12:43:44.900Z,1.70
2019-06-08T12:46:40.934Z,1.60
2019-06-08T12:49:16.447Z,1.50
2019-06-08T12:51:54.002Z,1.57
2019-06-08T12:54:37.534Z,1.40
2019-06-08T12:57:15.485Z,1.60
2019-06-08T13:00:08.475Z,1.27
2019-06-08T13:03:29.829Z,1.40
2019-06-08T13:05:47.114Z,1.50
2019-06-08T13:14:23.076Z,1.40
2019-06-08T13:16:54.616Z,1.40
2019-06-08T13:19:38.533Z,1.50
2019-06-08T13:22:10.788Z,1.83
2019-06-08T13:24:43.868Z,1.50
2019-06-08T13:27:21.584Z,1.30
2019-06-08T13:29:51.156Z,1.47
2019-06-08T13:32:24.148Z,1.77
2019-06-08T13:34:58.497Z,1.90
2019-06-08T13:37:44.446Z,1.50
2019-06-08T13:40:27.507Z,1.73
2019-06-08T13:43:25.645Z,1.50
2019-06-08T13:45:44.393Z,1.70
2019-06-08T13:48:44.729Z,1.33
2019-06-08T13:51:24.105Z,1.70
2019-06-08T13:54:19.957Z,1.90
2019-06-08T13:56:31.010Z,1.53
2019-06-08T13:59:00.956Z,1.90
2019-06-08T14:01:32.656Z,1.80
2019-06-08T14:04:09.074Z,1.63
2019-06-08T14:06:50.246Z,1.60
2019-06-08T14:11:14.598Z,1.80
2019-06-08T14:13:15.142Z,1.27
2019-06-08T14:16:39.243Z,1.50
2019-06-08T14:18:41.328Z,1.40
2019-06-08T14:21:21.430Z,1.47
2019-06-08T14:23:54.261Z,1.60
2019-06-08T14:26:32.324Z,1.53
2019-06-08T14:29:03.032Z,1.60
2019-06-08T14:31:34.437Z,1.40
2019-06-08T14:34:38.494Z,1.50
2019-06-08T14:37:49.170Z,1.20
2019-06-08T14:39:44.414Z,1.60
2019-06-08T14:45:13.752Z,1.70
2019-06-08T14:48:07.841Z,1.30
2019-06-08T14:50:44.216Z,1.53
2019-06-08T14:53:18.862Z,1.60
2019-06-08T14:55:56.715Z,1.50
2019-06-08T14:58:34.675Z,1.77
2019-06-08T15:01:07.731Z,1.30
2019-06-08T15:03:42.631Z,1.37
2019-06-08T15:09:08.528Z,1.67
2019-06-08T15:11:38.201Z,1.60
2019-06-08T15:14:13.039Z,1.63
2019-06-08T15:16:42.866Z,1.47
2019-06-08T15:19:20.252Z,1.43
2019-06-08T15:22:40.845Z,1.60
2019-06-08T15:25:31.144Z,1.40
2019-06-08T15:28:22.615Z,1.40
2019-06-08T15:31:00.622Z,1.60
2019-06-08T15:36:20.821Z,1.73
2019-06-08T15:39:11.601Z,1.43
2019-06-08T15:41:44.381Z,1.50
2019-06-08T15:47:42.143Z,1.60
2019-06-08T15:50:12.061Z,1.30
2019-06-08T15:53:29.079Z,1.60
2019-06-08T15:55:38.434Z,1.50
2019-06-08T15:58:12.613Z,2.20
2019-06-08T16:06:38.614Z,1.40
2019-06-08T16:09:10.969Z,1.80
2019-06-08T16:11:40.807Z,1.67
2019-06-08T16:14:41.523Z,1.40
2019-06-08T16:17:19.067Z,1.73
2019-06-08T16:19:57.045Z,1.70
2019-06-08T16:22:27.676Z,1.60
2019-06-08T16:25:16.112Z,1.60
2019-06-08T16:27:45.903Z,1.60
2019-06-08T16:30:16.669Z,1.90
2019-06-08T16:32:48.343Z,1.63
2019-06-08T16:35:22.733Z,1.87
2019-06-08T16:38:00.445Z,1.60
2019-06-08T16:40:47.262Z,1.60
2019-06-08T16:43:17.134Z,1.60
2019-06-08T16:45:47.118Z,1.70
2019-06-08T16:48:27.952Z,1.23
2019-06-08T16:50:59.022Z,1.87
2019-06-08T16:53:29.416Z,1.63
2019-06-08T16:55:59.129Z,1.43
2019-06-08T16:58:30.011Z,1.50
2019-06-08T17:00:59.945Z,1.73
2019-06-08T17:03:32.924Z,1.50
2019-06-08T17:06:21.012Z,1.53
2019-06-08T17:08:54.587Z,1.80
2019-06-08T17:11:24.404Z,1.80
2019-06-08T17:13:55.759Z,1.60
2019-06-08T17:16:25.487Z,1.50
2019-06-08T17:18:56.257Z,1.60
2019-06-08T17:21:36.576Z,1.87
2019-06-08T17:24:12.168Z,2.00
2019-06-08T17:26:43.505Z,1.60
2019-06-08T17:29:13.313Z,1.80
2019-06-08T17:31:46.056Z,1.67
2019-06-08T17:34:15.838Z,1.80
2019-06-08T17:36:48.395Z,1.43
2019-06-08T17:39:20.757Z,1.63
2019-06-08T17:41:50.749Z,1.90
2019-06-08T17:44:22.058Z,1.60
2019-06-08T17:46:51.889Z,1.43
2019-06-08T17:49:21.811Z,1.37
2019-06-08T17:51:51.496Z,1.90
2019-06-08T17:54:21.237Z,1.57
2019-06-08T17:56:52.917Z,1.77
2019-06-08T17:59:22.706Z,2.00
2019-06-08T18:01:52.486Z,1.47
2019-06-08T18:04:22.587Z,1.80
2019-06-08T18:06:52.292Z,1.63
2019-06-08T18:09:22.064Z,1.90
2019-06-08T18:11:53.402Z,1.90
2019-06-08T18:14:23.090Z,1.90
2019-06-08T18:16:53.312Z,1.90
2019-06-08T18:19:28.293Z,1.70
2019-06-08T18:22:04.056Z,1.70
2019-06-08T18:24:30.187Z,1.50
2019-06-08T18:27:00.765Z,1.20
2019-06-08T18:29:30.454Z,1.67
2019-06-08T18:32:00.307Z,1.40
2019-06-08T18:34:30.060Z,1.50
2019-06-08T18:36:59.779Z,1.30
2019-06-08T18:39:30.252Z,1.30
2019-06-08T18:42:00.012Z,1.30
2019-06-08T18:44:29.967Z,1.33
2019-06-08T18:46:59.728Z,1.40
2019-06-08T18:49:29.420Z,1.30
2019-06-08T18:51:59.368Z,1.60
2019-06-08T18:54:29.242Z,1.80
2019-06-08T18:56:58.954Z,1.53
2019-06-08T18:59:28.888Z,1.30
2019-06-08T19:01:58.771Z,1.30
2019-06-08T19:04:30.776Z,1.50
2019-06-08T19:07:01.995Z,1.73
2019-06-08T19:09:37.510Z,1.50
2019-06-08T19:12:06.433Z,1.60
2019-06-08T19:14:37.777Z,1.73
2019-06-08T19:17:09.778Z,1.67
2019-06-08T19:19:45.735Z,1.53
2019-06-08T19:22:12.602Z,1.60
2019-06-08T19:24:45.336Z,1.50
2019-06-08T19:27:18.359Z,1.60
2019-06-08T19:29:51.521Z,1.97
2019-06-08T19:32:22.130Z,1.60
2019-06-08T19:34:53.949Z,1.93
2019-06-08T19:37:23.811Z,1.70
2019-06-08T19:39:53.543Z,1.80
2019-06-08T19:42:35.857Z,1.87
2019-06-08T19:45:04.222Z,1.70
2019-06-08T19:47:27.599Z,1.50
2019-06-08T19:49:57.945Z,1.43
2019-06-08T19:52:28.037Z,1.63
2019-06-08T19:55:07.643Z,1.47
2019-06-08T19:57:36.722Z,1.63
2019-06-08T20:00:09.823Z,1.73
2019-06-08T20:02:40.557Z,1.70
2019-06-08T20:05:11.026Z,1.83
2019-06-08T20:07:41.168Z,1.80
2019-06-08T20:10:11.739Z,1.70
2019-06-08T20:12:41.517Z,1.90
2019-06-08T20:15:11.956Z,1.70
2019-06-08T20:17:42.208Z,1.67
2019-06-08T20:20:12.045Z,1.80
2019-06-08T20:22:41.894Z,1.70
2019-06-08T20:25:11.782Z,1.83
2019-06-08T20:27:43.322Z,1.67
2019-06-08T20:30:13.489Z,1.60
2019-06-08T20:32:44.439Z,1.70
2019-06-08T20:35:14.504Z,1.93
2019-06-08T20:37:44.232Z,2.00
2019-06-08T20:40:14.441Z,1.90
2019-06-08T20:42:47.557Z,1.67
2019-06-08T20:45:17.278Z,1.90
2019-06-08T20:47:50.555Z,2.13
2019-06-08T20:50:19.216Z,1.87
2019-06-08T20:52:52.781Z,1.97
2019-06-08T20:55:23.320Z,2.00
2019-06-08T20:57:53.798Z,1.83
2019-06-08T21:00:24.506Z,1.77
2019-06-08T21:02:54.911Z,1.97
2019-06-08T21:05:27.821Z,2.23
2019-06-08T21:07:58.994Z,1.80
2019-06-08T21:10:29.116Z,1.90
2019-06-08T21:12:59.265Z,1.70
2019-06-08T21:15:29.016Z,2.03
2019-06-08T21:17:59.129Z,2.20
2019-06-08T21:20:29.069Z,2.00
2019-06-08T21:22:59.847Z,1.70
2019-06-08T21:25:30.070Z,1.90
2019-06-08T21:28:00.156Z,1.70
2019-06-08T21:30:29.880Z,2.10
2019-06-08T21:33:00.937Z,1.80
2019-06-08T21:35:30.757Z,2.20
2019-06-08T21:38:01.314Z,2.00
2019-06-08T21:40:31.941Z,1.90
2019-06-08T21:43:01.720Z,2.17
2019-06-08T21:45:31.447Z,2.37
2019-06-08T21:48:01.191Z,2.17
2019-06-08T21:50:30.966Z,2.17
2019-06-08T21:53:00.669Z,2.47
2019-06-08T21:55:30.381Z,2.07
2019-06-08T21:58:01.976Z,2.40
2019-06-08T22:00:39.266Z,2.47
2019-06-08T22:03:03.694Z,2.20
2019-06-08T22:05:33.440Z,2.30
2019-06-08T22:08:03.327Z,2.40
2019-06-08T22:10:33.152Z,2.43
2019-06-08T22:13:03.145Z,2.10
2019-06-08T22:15:32.907Z,2.37
2019-06-08T22:18:03.223Z,1.90
2019-06-08T22:20:33.211Z,2.13
2019-06-08T22:23:03.758Z,2.23
2019-06-08T22:25:33.510Z,2.40
2019-06-08T22:28:03.967Z,2.47
2019-06-08T22:30:39.913Z,2.63
2019-06-08T22:33:05.377Z,2.47
2019-06-08T22:35:37.371Z,2.47
2019-06-08T22:38:08.555Z,2.20
2019-06-08T22:40:38.379Z,2.20
2019-06-08T22:43:08.251Z,2.00
2019-06-08T22:45:38.740Z,1.87
2019-06-08T22:48:08.863Z,2.00
2019-06-08T22:50:45.018Z,2.07
2019-06-08T22:53:15.661Z,2.30
2019-06-08T22:55:47.646Z,2.23
2019-06-08T22:58:19.032Z,1.90
2019-06-08T23:00:52.666Z,1.77
2019-06-08T23:03:20.517Z,2.40
2019-06-08T23:05:50.636Z,2.17
2019-06-08T23:08:22.316Z,2.30
2019-06-08T23:10:52.232Z,1.80
2019-06-08T23:13:22.203Z,2.20
2019-06-08T23:15:52.173Z,2.37
2019-06-08T23:18:22.069Z,1.90
2019-06-08T23:20:52.207Z,2.37
2019-06-08T23:23:27.172Z,2.13
2019-06-08T23:26:00.347Z,2.30
2019-06-08T23:28:28.308Z,2.37
2019-06-08T23:31:09.411Z,2.03
2019-06-08T23:33:35.233Z,2.60
2019-06-08T23:38:37.391Z,2.10
2019-06-08T23:41:09.943Z,2.27
2019-06-08T23:43:39.072Z,2.33
2019-06-08T23:46:09.087Z,2.27
2019-06-08T23:48:39.028Z,1.93
2019-06-08T23:51:10.926Z,1.97
2019-06-08T23:53:40.706Z,2.30
2019-06-08T23:56:11.871Z,1.87
2019-06-08T23:58:42.001Z,2.10
